• Join FlightAware (Why Join?)
  • Login
  • US Flag 
04:36AM EDT


 

Airport Tracker/Info


-or-


 

Live Flight TrackerFlight Track Log ✈ EJA941 ✈ 15-Jan-2014 ✈ KRSW - KBNA

Flight Track Log - Related Links

Times and Time Zones

All times are in EST time to prevent confusion due to time zone crossing. See the EJA941 flight status page for this flight to view local times or setup timezone preferences in your user account.

Time Position Orientation Groundspeed Altitude Reporting Facility
EST Latitude Longitude Course Direction KTS MPH feet Rate Location/Type
11:06AM 26.6178 -81.6547 16° North 288 331 7,000  Level Miami Center
11:08AM 26.8081 -81.7044 347° North 336 387 13,000 2,400 Climbing Miami Center
11:09AM 26.9183 -81.7183 354° North 365 420 14,300 1,440 Climbing Miami Center
11:10AM 27.2782 -82.1000 16° North  Level Estimated
11:10AM 27.0033 -81.7311 352° North 383 441 15,900  Level Miami Center
11:11AM 27.1258 -81.7503 352° North 389 448 17,800 1,740 Climbing Miami Center
11:12AM 27.2361 -81.7667 352° North 395 455 19,400 1,620 Climbing Miami Center
11:13AM 27.3647 -81.7861 352° North 407 468 21,100 1,500 Climbing Miami Center
11:14AM 27.4811 -81.8028 353° North 418 481 22,500 1,260 Climbing Miami Center
11:15AM 27.6014 -81.8219 352° North 429 494 23,700 1,200 Climbing Miami Center
11:16AM 27.7136 -81.8386 353° North 434 499 25,000 1,200 Climbing Miami Center
11:17AM 27.8403 -81.8558 353° North 443 510 26,100 1,260 Climbing Miami Center
11:19AM 28.1567 -81.9156 351° North 495 570 29,200 1,380 Climbing Jacksonville Center
11:20AM 28.2803 -81.9875 333° Northwest 495 570 30,500 1,320 Climbing Jacksonville Center
11:21AM 28.3956 -82.0808 325° Northwest 491 565 31,900 1,440 Climbing Jacksonville Center
11:22AM 28.5089 -82.1719 325° Northwest 498 573 33,400 1,500 Climbing Jacksonville Center
11:23AM 28.6408 -82.2372 337° Northwest 504 580 34,900 1,260 Climbing Jacksonville Center
11:24AM 28.7747 -82.3003 338° Northwest 509 586 36,000 960 Climbing Jacksonville Center
11:25AM 28.8939 -82.3567 337° Northwest 515 593 36,900 900 Climbing Jacksonville Center
11:26AM 29.0297 -82.4175 339° North 515 593 37,900 540 Climbing Jacksonville Center
11:27AM 29.1636 -82.4811 337° Northwest 515 593 38,000  Climbing Jacksonville Center
11:28AM 29.3056 -82.5353 342° North 521 600 38,000  Level Jacksonville Center
11:29AM 29.4458 -82.5944 340° North 533 613 38,000  Level Jacksonville Center
11:30AM 29.5836 -82.6561 339° North 528 608 38,000  Level Jacksonville Center
11:31AM 29.7214 -82.7156 339° North 528 608 38,000  Level Jacksonville Center
11:32AM 29.8572 -82.7706 341° North 528 608 38,000  Level Jacksonville Center
11:33AM 30.0056 -82.8325 340° North 523 602 38,000  Level Jacksonville Center
11:34AM 30.1411 -82.8878 341° North 517 595 38,000  Level Jacksonville Center
11:35AM 30.2769 -82.9456 340° North 517 595 38,000  Level Jacksonville Center
11:36AM 30.4106 -83.0033 340° North 511 588 38,000  Level Jacksonville Center
11:37AM 30.5461 -83.0589 341° North 511 588 38,000  Level Jacksonville Center
11:38AM 30.6819 -83.1172 340° North 511 588 38,000  Level Jacksonville Center
11:39AM 30.8153 -83.1731 340° North 511 588 38,000  Level Jacksonville Center
11:40AM 30.9342 -83.2292 338° Northwest 511 588 38,000  Level Jacksonville Center
11:41AM 31.0678 -83.2881 339° North 511 588 38,000  Level Jacksonville Center
11:43AM 31.3044 -83.3950 339° North 543 625 38,000  Level Atlanta Center
11:44AM 31.4383 -83.4522 340° North 522 601 38,000  Level Atlanta Center
11:45AM 31.5886 -83.4658 356° North 522 601 38,000  Level Atlanta Center
11:46AM 31.7264 -83.4725 358° North 539 620 38,000  Level Atlanta Center
11:47AM 31.8728 -83.5081 348° North 544 626 38,000  Level Atlanta Center
11:48AM 32.0044 -83.5711 338° Northwest 513 590 38,000  Level Atlanta Center
11:49AM 32.1342 -83.6367 337° Northwest 513 590 38,000  Level Atlanta Center
11:50AM 32.2658 -83.7047 336° Northwest 513 590 38,000  Level Atlanta Center
11:51AM 32.3956 -83.7706 337° Northwest 513 590 38,000  Level Atlanta Center
11:52AM 32.5250 -83.8394 336° Northwest 513 590 38,000  Level Atlanta Center
11:53AM 32.6586 -83.9081 337° Northwest 513 590 38,000  Level Atlanta Center
11:54AM 32.7903 -83.9769 336° Northwest 513 590 38,000  Level Atlanta Center
11:55AM 32.9197 -84.0414 337° Northwest 513 590 38,000  Level Atlanta Center
11:56AM 33.0658 -84.1231 335° Northwest 513 590 38,000  Level Atlanta Center
11:57AM 33.1847 -84.1853 336° Northwest 513 590 38,000  Level Atlanta Center
11:58AM 33.3161 -84.2525 337° Northwest 521 600 38,000  Level Atlanta Center
11:59AM 33.4494 -84.3225 336° Northwest 521 600 38,000  Level Atlanta Center
12:00PM 33.5831 -84.3928 336° Northwest 521 600 38,000  Level Atlanta Center
12:01PM 33.7164 -84.4608 337° Northwest 515 593 38,000  Level Atlanta Center
12:02PM 33.8497 -84.5342 335° Northwest 523 602 38,000  Level Atlanta Center
12:03PM 33.9808 -84.6025 337° Northwest 523 602 38,000  Level Atlanta Center
12:04PM 34.1078 -84.6811 333° Northwest 512 589 38,000 -600 Level Atlanta Center
12:05PM 34.2389 -84.7575 334° Northwest 512 589 36,900 -1,620 Descending Atlanta Center
12:06PM 34.3697 -84.8392 333° Northwest 512 589 34,800 -2,100 Descending Atlanta Center
12:07PM 34.4944 -84.9133 334° Northwest 507 583 32,800 -2,040 Descending Atlanta Center
12:08PM 34.6211 -84.9928 333° Northwest 507 583 30,800 -1,740 Descending Atlanta Center
12:10PM 34.9014 -85.2072 328° Northwest 506 582 26,900 -1,740 Descending Memphis Center
12:11PM 35.0122 -85.2942 327° Northwest 481 554 25,000 -1,320 Descending Memphis Center
12:12PM 35.1375 -85.3917 328° Northwest 452 520 24,200 -1,260 Descending Memphis Center
12:13PM 35.2286 -85.4958 317° Northwest 447 514 22,400 -1,500 Descending Memphis Center
12:14PM 35.3072 -85.5969 314° West 420 483 21,100 -1,320 Descending Memphis Center
12:15PM 35.3867 -85.6983 314° West 412 474 19,700 -1,440 Descending Memphis Center
12:16PM 35.4672 -85.8019 314° West 414 476 18,200 -1,380 Descending Memphis Center
12:17PM 35.5469 -85.9047 314° West 415 478 16,900 -1,560 Descending Memphis Center
12:18PM 35.6233 -86.0067 313° West 375 432 15,000 -1,800 Descending Memphis Center
12:19PM 35.6819 -86.0844 313° West 322 371 13,300 -1,740 Descending Memphis Center
12:20PM 35.7308 -86.1567 310° West 282 325 11,500 -1,800 Descending Memphis Center
12:21PM 35.7700 -86.2319 303° West 264 304 9,700 -1,860 Descending Memphis Center
12:22PM 35.8167 -86.3186 304° West 259 298 7,700 -1,800 Descending Memphis Center
12:23PM 35.8558 -86.3931 303° West 257 296 6,100 -1,500 Descending Memphis Center
12:24PM 35.8947 -86.4664 303° West 254 292 4,600 -1,320 Descending Memphis Center
12:25PM 35.9331 -86.5375 304° West 248 285 3,400 -780 Descending Memphis Center
12:27PM 35.9661 -86.5997 303° West 222 255 3,100 -300 Descending Memphis Center
12:28PM 35.9972 -86.6581 303° West 206 237 2,900 -300 Descending Memphis Center
12:29PM 36.0406 -86.6950 325° Northwest 193 222 2,500 -780 Descending Memphis Center
12:30PM 36.0819 -86.6803 16° North 166 191 1,400 -960 Descending Memphis Center
12:31PM 36.1147 -86.6661 19° North 141 162 600 -780 Descending Memphis Center
12:33PM 36.1167 -86.6667 349° North  Level FlightAware Approximate